Hlavní strana
METAR-TAF:

METAR-TAF

Letiště :

Nuakšott, Mauritánie

zeměpisná šířka: 18-18-36N, zeměpisná délka: 015-58-11W, výška: 3 m

Aktuální stav počasí

Zpráva byla vytvořena před 36 minutami, v 08:30 UTC
Severozápadní vítr 10 kt
Teplota 22°C
Vlhkost vzduchu 78%
Tlak 1010 hPa
Viditelnost: 8000 m

METAR: GQNO 250830Z 32010KT 8000 NSC 22/18 Q1010 NOSIG

Čas: 09:06 (09:06 UTC)

Předpověď počasí

Zpráva byla vytvořena před 4 hodinami a 6 minutami, v 05:00 UTC
Předpověď platná od 25 v 06 UTC do 26 v 12 UTC
Severozápadní vítr 12 kt
Viditelnost: 8000 m

TAF: GQNO 250500Z 2506/2612 31012KT 8000 NSC

Stav a předpovědi počasí z více než 4 000 letišť (zprávy METAR a TAF).

Červené a žluté tečky na mapě představují dostupné meteorologické stanice.

Když kurzor umístíte na tečku, zobrazí se název stanice.

Pak kliknutím zobrazíte stav a předpověď počasí.

Chcete-li změnit mapu, kliknutím na zelené tlačítko se znaménkem +mapu přiblížíte, kliknutím na zelené tlačítko se znaménkem – mapu oddálíte a kliknutím na zelené šipky přejdete na sousední mapy.


METAR-TAF: